Main page
METAR-TAF:

METAR-TAF

Airports :

Salt Lake City International Airport

Salt Lake City, Utah, United States

latitude: 40-46-41N, longitude: 111-58-10W, elevation: 1288 m

Current weather observation

The report was made 40 minutes ago, at 18:54 UTC
Wind 9 kt from the North/Northwest
Temperature 26°C
Humidity 20%
Pressure 1011 hPa
Visibility: 16.1 km
Few clouds at a height of 4000 ft

METAR: KSLC 191854Z 33009KT 10SM FEW040 26/01 A2984 RMK AO2 SLP054 FU FEW040 FU DSNT SE AND SW-NW T02560011

Time: 13:34 (19:34 UTC)

Forecast

The report was made 1 hour and 53 minutes ago, at 17:41 UTC
Forecast valid from 19 at 18 UTC to 20 at 24 UTC
Wind 5 kt from the North/Northwest
Visibility: 10 km
Clear sky
From 19 at 2100 UTC
Wind 10 kt from the North/Northwest with gusts up to 16 kt
Visibility: 10 km
Clear sky
From 20 at 0200 UTC
Wind 6 kt from the North/Northwest
Visibility: 10 km
Clear sky

TAF: KSLC 191741Z 1918/2024 33005KT P6SM SKC FM192100 33010G16KT P6SM SKC FM200200 34006KT P6SM SKC

Weather observations and forecasts of more than 4000 airports (METAR and TAF reports).

The available stations are represented by yellow and red dots on the map.

Hover mouse over dot to see the name of the station.

Then click to see weather observations and forecasts.

To change the map : click on the green buttons with a black cross to zoom in, on the green button with a dash to zoom out, or on the green arrows for adjacent maps.


METAR-TAF: